sensor_id;sensor_type;location;lat;lon;timestamp;pressure;altitude;pressure_sealevel;temperature;humidity
26657;BME280;14279;50.010;8.260;2023-11-18T00:01:48;101374.97;;;6.57;88.16
26657;BME280;14279;50.010;8.260;2023-11-18T00:04:13;101380.19;;;6.53;88.32
26657;BME280;14279;50.010;8.260;2023-11-18T00:06:41;101377.63;;;6.51;88.48
26657;BME280;14279;50.010;8.260;2023-11-18T00:09:09;101382.84;;;6.50;88.93
26657;BME280;14279;50.010;8.260;2023-11-18T00:11:35;101381.16;;;6.45;88.82
26657;BME280;14279;50.010;8.260;2023-11-18T00:14:00;101379.44;;;6.46;88.56
26657;BME280;14279;50.010;8.260;2023-11-18T00:16:25;101374.31;;;6.41;88.54
26657;BME280;14279;50.010;8.260;2023-11-18T00:18:51;101364.88;;;6.37;89.15
26657;BME280;14279;50.010;8.260;2023-11-18T00:21:18;101381.28;;;6.36;89.71
26657;BME280;14279;50.010;8.260;2023-11-18T00:23:43;101378.75;;;6.31;90.25
26657;BME280;14279;50.010;8.260;2023-11-18T00:26:10;101379.56;;;6.35;89.91
26657;BME280;14279;50.010;8.260;2023-11-18T00:28:36;101377.00;;;6.32;90.42
26657;BME280;14279;50.010;8.260;2023-11-18T00:31:01;101370.97;;;6.35;90.34
26657;BME280;14279;50.010;8.260;2023-11-18T00:33:26;101371.81;;;6.35;90.17
26657;BME280;14279;50.010;8.260;2023-11-18T00:35:52;101373.53;;;6.35;90.59
26657;BME280;14279;50.010;8.260;2023-11-18T00:38:17;101371.84;;;6.34;90.54
26657;BME280;14279;50.010;8.260;2023-11-18T00:40:43;101367.59;;;6.26;90.79
26657;BME280;14279;50.010;8.260;2023-11-18T00:43:08;101376.22;;;6.25;91.00
26657;BME280;14279;50.010;8.260;2023-11-18T00:45:33;101371.03;;;6.28;91.23
26657;BME280;14279;50.010;8.260;2023-11-18T00:47:58;101375.31;;;6.28;91.08
26657;BME280;14279;50.010;8.260;2023-11-18T00:50:24;101382.28;;;6.26;89.76
26657;BME280;14279;50.010;8.260;2023-11-18T00:52:49;101387.53;;;6.15;88.74
26657;BME280;14279;50.010;8.260;2023-11-18T00:55:15;101385.88;;;6.09;88.89
26657;BME280;14279;50.010;8.260;2023-11-18T00:57:43;101386.00;;;6.00;89.33
26657;BME280;14279;50.010;8.260;2023-11-18T01:00:08;101385.94;;;6.05;89.43
26657;BME280;14279;50.010;8.260;2023-11-18T01:02:39;101389.44;;;5.94;89.18
26657;BME280;14279;50.010;8.260;2023-11-18T01:05:05;101384.28;;;5.94;88.07
26657;BME280;14279;50.010;8.260;2023-11-18T01:07:30;101387.91;;;5.78;87.70
26657;BME280;14279;50.010;8.260;2023-11-18T01:10:00;101396.50;;;5.78;87.99
26657;BME280;14279;50.010;8.260;2023-11-18T01:12:25;101388.75;;;5.80;87.94
26657;BME280;14279;50.010;8.260;2023-11-18T01:14:51;101389.66;;;5.77;88.34
26657;BME280;14279;50.010;8.260;2023-11-18T01:17:16;101388.69;;;5.86;87.80
26657;BME280;14279;50.010;8.260;2023-11-18T01:19:42;101393.78;;;5.92;87.71
26657;BME280;14279;50.010;8.260;2023-11-18T01:22:07;101385.22;;;5.89;87.90
26657;BME280;14279;50.010;8.260;2023-11-18T01:24:33;101397.31;;;5.85;87.83
26657;BME280;14279;50.010;8.260;2023-11-18T01:26:59;101396.47;;;5.81;88.59
26657;BME280;14279;50.010;8.260;2023-11-18T01:29:24;101390.38;;;5.89;89.01
26657;BME280;14279;50.010;8.260;2023-11-18T01:31:50;101400.72;;;5.89;89.55
26657;BME280;14279;50.010;8.260;2023-11-18T01:34:15;101395.50;;;5.93;89.44
26657;BME280;14279;50.010;8.260;2023-11-18T01:36:42;101385.16;;;5.93;89.52
26657;BME280;14279;50.010;8.260;2023-11-18T01:39:09;101385.97;;;5.98;88.76
26657;BME280;14279;50.010;8.260;2023-11-18T01:41:34;101383.41;;;5.97;89.33
26657;BME280;14279;50.010;8.260;2023-11-18T01:43:59;101378.25;;;5.95;89.00
26657;BME280;14279;50.010;8.260;2023-11-18T01:46:25;101384.47;;;5.76;89.45
26657;BME280;14279;50.010;8.260;2023-11-18T01:48:50;101375.16;;;5.62;90.89
26657;BME280;14279;50.010;8.260;2023-11-18T01:51:17;101372.66;;;5.50;91.44
26657;BME280;14279;50.010;8.260;2023-11-18T01:53:47;101371.94;;;5.34;91.63
26657;BME280;14279;50.010;8.260;2023-11-18T01:56:13;101382.25;;;5.35;91.79
26657;BME280;14279;50.010;8.260;2023-11-18T01:58:39;101384.84;;;5.32;91.68
26657;BME280;14279;50.010;8.260;2023-11-18T02:01:06;101383.06;;;5.42;91.53
26657;BME280;14279;50.010;8.260;2023-11-18T02:03:34;101387.41;;;5.35;90.97
26657;BME280;14279;50.010;8.260;2023-11-18T02:05:59;101396.91;;;5.33;91.32
26657;BME280;14279;50.010;8.260;2023-11-18T02:08:25;101395.16;;;5.34;90.69
26657;BME280;14279;50.010;8.260;2023-11-18T02:11:17;101393.44;;;5.33;90.96
26657;BME280;14279;50.010;8.260;2023-11-18T02:13:48;101395.16;;;5.34;90.69
26657;BME280;14279;50.010;8.260;2023-11-18T02:16:16;101397.72;;;5.37;90.10
26657;BME280;14279;50.010;8.260;2023-11-18T02:18:42;101408.91;;;5.39;90.17
26657;BME280;14279;50.010;8.260;2023-11-18T02:21:08;101418.31;;;5.45;90.19
26657;BME280;14279;50.010;8.260;2023-11-18T02:23:35;101417.44;;;5.46;89.82
26657;BME280;14279;50.010;8.260;2023-11-18T02:26:02;101420.84;;;5.51;89.85
26657;BME280;14279;50.010;8.260;2023-11-18T02:28:27;101425.16;;;5.53;88.71
26657;BME280;14279;50.010;8.260;2023-11-18T02:31:01;101429.53;;;5.45;89.26
26657;BME280;14279;50.010;8.260;2023-11-18T02:33:35;101425.19;;;5.46;88.86
26657;BME280;14279;50.010;8.260;2023-11-18T02:36:09;101425.22;;;5.42;89.11
26657;BME280;14279;50.010;8.260;2023-11-18T02:38:44;101427.00;;;5.37;89.53
26657;BME280;14279;50.010;8.260;2023-11-18T02:41:12;101413.16;;;5.45;89.29
26657;BME280;14279;50.010;8.260;2023-11-18T02:43:39;101427.00;;;5.37;89.38
26657;BME280;14279;50.010;8.260;2023-11-18T02:46:05;101421.84;;;5.37;89.67
26657;BME280;14279;50.010;8.260;2023-11-18T02:48:32;101426.97;;;5.39;89.74
26657;BME280;14279;50.010;8.260;2023-11-18T02:50:58;101419.22;;;5.42;89.27
26657;BME280;14279;50.010;8.260;2023-11-18T02:53:24;101420.06;;;5.42;90.13
26657;BME280;14279;50.010;8.260;2023-11-18T02:55:49;101419.22;;;5.40;89.57
26657;BME280;14279;50.010;8.260;2023-11-18T02:58:17;101415.03;;;5.21;90.82
26657;BME280;14279;50.010;8.260;2023-11-18T03:00:42;101410.84;;;5.06;92.27
26657;BME280;14279;50.010;8.260;2023-11-18T03:03:10;101400.53;;;5.04;92.00
26657;BME280;14279;50.010;8.260;2023-11-18T03:05:36;101394.47;;;5.10;91.88
26657;BME280;14279;50.010;8.260;2023-11-18T03:08:02;101396.28;;;4.97;92.14
26657;BME280;14279;50.010;8.260;2023-11-18T03:10:31;101398.00;;;4.95;92.31
26657;BME280;14279;50.010;8.260;2023-11-18T03:13:00;101395.50;;;4.86;92.49
26657;BME280;14279;50.010;8.260;2023-11-18T03:15:25;101398.94;;;4.85;92.98
26657;BME280;14279;50.010;8.260;2023-11-18T03:17:51;101401.56;;;4.77;92.90
26657;BME280;14279;50.010;8.260;2023-11-18T03:20:18;101388.59;;;4.89;92.25
26657;BME280;14279;50.010;8.260;2023-11-18T03:22:44;101387.72;;;4.92;91.73
26657;BME280;14279;50.010;8.260;2023-11-18T03:25:10;101374.81;;;4.90;91.69
26657;BME280;14279;50.010;8.260;2023-11-18T03:27:35;101383.44;;;4.91;91.34
26657;BME280;14279;50.010;8.260;2023-11-18T03:30:01;101389.47;;;4.90;91.53
26657;BME280;14279;50.010;8.260;2023-11-18T03:32:26;101391.09;;;5.02;91.39
26657;BME280;14279;50.010;8.260;2023-11-18T03:34:51;101409.16;;;5.05;91.23
26657;BME280;14279;50.010;8.260;2023-11-18T03:37:17;101401.38;;;5.08;91.01
26657;BME280;14279;50.010;8.260;2023-11-18T03:39:42;101399.56;;;5.21;90.71
26657;BME280;14279;50.010;8.260;2023-11-18T03:42:07;101402.16;;;5.22;90.21
26657;BME280;14279;50.010;8.260;2023-11-18T03:44:33;101412.47;;;5.25;90.09
26657;BME280;14279;50.010;8.260;2023-11-18T03:46:58;101413.31;;;5.24;90.31
26657;BME280;14279;50.010;8.260;2023-11-18T03:49:24;101417.59;;;5.29;89.91
26657;BME280;14279;50.010;8.260;2023-11-18T03:51:49;101404.63;;;5.32;90.27
26657;BME280;14279;50.010;8.260;2023-11-18T03:54:14;101404.66;;;5.33;91.01
26657;BME280;14279;50.010;8.260;2023-11-18T03:56:39;101397.72;;;5.37;89.88
26657;BME280;14279;50.010;8.260;2023-11-18T03:59:05;101401.19;;;5.36;90.07
26657;BME280;14279;50.010;8.260;2023-11-18T04:01:30;101399.44;;;5.38;90.48
26657;BME280;14279;50.010;8.260;2023-11-18T04:03:56;101408.94;;;5.33;90.89
26657;BME280;14279;50.010;8.260;2023-11-18T04:06:22;101396.03;;;5.37;90.81
26657;BME280;14279;50.010;8.260;2023-11-18T04:08:49;101386.56;;;5.32;90.96
26657;BME280;14279;50.010;8.260;2023-11-18T04:11:14;101389.13;;;5.38;91.25
26657;BME280;14279;50.010;8.260;2023-11-18T04:13:40;101387.47;;;5.26;92.12
26657;BME280;14279;50.010;8.260;2023-11-18T04:16:10;101382.25;;;5.34;91.65
26657;BME280;14279;50.010;8.260;2023-11-18T04:18:38;101381.38;;;5.38;91.61
26657;BME280;14279;50.010;8.260;2023-11-18T04:21:05;101380.53;;;5.33;91.81
26657;BME280;14279;50.010;8.260;2023-11-18T04:23:31;101378.03;;;5.26;92.25
26657;BME280;14279;50.010;8.260;2023-11-18T04:25:58;101378.88;;;5.29;92.41
26657;BME280;14279;50.010;8.260;2023-11-18T04:28:23;101379.75;;;5.23;92.22
26657;BME280;14279;50.010;8.260;2023-11-18T04:30:48;101377.09;;;5.31;92.34
26657;BME280;14279;50.010;8.260;2023-11-18T04:33:13;101376.28;;;5.29;92.38
26657;BME280;14279;50.010;8.260;2023-11-18T04:35:39;101383.94;;;5.38;92.09
26657;BME280;14279;50.010;8.260;2023-11-18T04:38:04;101383.09;;;5.40;91.83
26657;BME280;14279;50.010;8.260;2023-11-18T04:40:29;101388.28;;;5.37;92.05
26657;BME280;14279;50.010;8.260;2023-11-18T04:42:55;101387.44;;;5.31;91.56
26657;BME280;14279;50.010;8.260;2023-11-18T04:45:21;101389.97;;;5.37;91.85
26657;BME280;14279;50.010;8.260;2023-11-18T04:47:46;101394.25;;;5.41;91.31
26657;BME280;14279;50.010;8.260;2023-11-18T04:50:11;101403.66;;;5.47;91.20
26657;BME280;14279;50.010;8.260;2023-11-18T04:52:36;101400.28;;;5.41;91.11
26657;BME280;14279;50.010;8.260;2023-11-18T04:55:03;101399.47;;;5.36;91.03
26657;BME280;14279;50.010;8.260;2023-11-18T04:57:30;101400.31;;;5.38;91.13
26657;BME280;14279;50.010;8.260;2023-11-18T04:59:55;101402.94;;;5.31;91.52
26657;BME280;14279;50.010;8.260;2023-11-18T05:02:21;101391.75;;;5.33;91.53
26657;BME280;14279;50.010;8.260;2023-11-18T05:04:47;101372.84;;;5.28;91.84
26657;BME280;14279;50.010;8.260;2023-11-18T05:07:12;101380.63;;;5.22;91.82
26657;BME280;14279;50.010;8.260;2023-11-18T05:09:37;101383.22;;;5.19;91.96
26657;BME280;14279;50.010;8.260;2023-11-18T05:12:03;101388.44;;;5.14;92.60
26657;BME280;14279;50.010;8.260;2023-11-18T05:14:28;101392.72;;;5.15;92.83
26657;BME280;14279;50.010;8.260;2023-11-18T05:16:54;101371.19;;;5.19;92.46
26657;BME280;14279;50.010;8.260;2023-11-18T05:19:19;101364.25;;;5.23;92.60
26657;BME280;14279;50.010;8.260;2023-11-18T05:21:44;101367.69;;;5.28;92.39
26657;BME280;14279;50.010;8.260;2023-11-18T05:24:14;101379.69;;;5.31;92.21
26657;BME280;14279;50.010;8.260;2023-11-18T05:26:39;101373.69;;;5.27;92.00
26657;BME280;14279;50.010;8.260;2023-11-18T05:29:05;101370.25;;;5.30;92.25
26657;BME280;14279;50.010;8.260;2023-11-18T05:31:31;101370.22;;;5.31;92.08
26657;BME280;14279;50.010;8.260;2023-11-18T05:33:57;101366.75;;;5.38;91.96
26657;BME280;14279;50.010;8.260;2023-11-18T05:36:23;101358.06;;;5.42;91.91
26657;BME280;14279;50.010;8.260;2023-11-18T05:38:55;101358.91;;;5.48;91.22
26657;BME280;14279;50.010;8.260;2023-11-18T05:41:21;101358.00;;;5.52;91.39
26657;BME280;14279;50.010;8.260;2023-11-18T05:43:53;101360.56;;;5.55;91.18
26657;BME280;14279;50.010;8.260;2023-11-18T05:46:22;101363.09;;;5.61;91.68
26657;BME280;14279;50.010;8.260;2023-11-18T05:48:52;101350.31;;;5.46;91.02
26657;BME280;14279;50.010;8.260;2023-11-18T05:51:25;101347.63;;;5.56;91.35
26657;BME280;14279;50.010;8.260;2023-11-18T05:53:52;101347.69;;;5.52;90.71
26657;BME280;14279;50.010;8.260;2023-11-18T05:56:17;101352.78;;;5.58;90.49
26657;BME280;14279;50.010;8.260;2023-11-18T05:58:43;101351.94;;;5.56;90.34
26657;BME280;14279;50.010;8.260;2023-11-18T06:01:08;101360.63;;;5.47;89.82
26657;BME280;14279;50.010;8.260;2023-11-18T06:03:34;101358.16;;;5.36;89.87
26657;BME280;14279;50.010;8.260;2023-11-18T06:06:07;101365.03;;;5.36;90.76
26657;BME280;14279;50.010;8.260;2023-11-18T06:08:37;101353.06;;;5.29;91.04
26657;BME280;14279;50.010;8.260;2023-11-18T06:11:06;101353.91;;;5.29;91.33
26657;BME280;14279;50.010;8.260;2023-11-18T06:13:39;101358.22;;;5.29;91.04
26657;BME280;14279;50.010;8.260;2023-11-18T06:16:08;101364.19;;;5.35;91.26
26657;BME280;14279;50.010;8.260;2023-11-18T06:18:34;101356.41;;;5.38;91.31
26657;BME280;14279;50.010;8.260;2023-11-18T06:21:01;101352.88;;;5.50;90.62
26657;BME280;14279;50.010;8.260;2023-11-18T06:23:26;101352.91;;;5.47;91.00
26657;BME280;14279;50.010;8.260;2023-11-18T06:25:51;101347.72;;;5.47;91.47
26657;BME280;14279;50.010;8.260;2023-11-18T06:28:16;101342.59;;;5.44;91.44
26657;BME280;14279;50.010;8.260;2023-11-18T06:30:42;101337.41;;;5.42;91.73
26657;BME280;14279;50.010;8.260;2023-11-18T06:33:07;101344.19;;;5.54;92.35
26657;BME280;14279;50.010;8.260;2023-11-18T06:35:32;101350.13;;;5.66;91.12
26657;BME280;14279;50.010;8.260;2023-11-18T06:37:59;101351.91;;;5.61;91.37
26657;BME280;14279;50.010;8.260;2023-11-18T06:40:25;101351.06;;;5.60;91.15
26657;BME280;14279;50.010;8.260;2023-11-18T06:42:52;101370.13;;;5.45;91.22
26657;BME280;14279;50.010;8.260;2023-11-18T06:45:19;101367.47;;;5.53;91.00
26657;BME280;14279;50.010;8.260;2023-11-18T06:47:46;101361.53;;;5.43;91.12
26657;BME280;14279;50.010;8.260;2023-11-18T06:50:11;101366.56;;;5.60;90.67
26657;BME280;14279;50.010;8.260;2023-11-18T06:52:40;101367.16;;;5.87;90.00
26657;BME280;14279;50.010;8.260;2023-11-18T06:55:06;101361.19;;;5.79;90.15
26657;BME280;14279;50.010;8.260;2023-11-18T06:57:32;101361.28;;;5.69;89.19
26657;BME280;14279;50.010;8.260;2023-11-18T06:59:58;101367.38;;;5.65;90.08
26657;BME280;14279;50.010;8.260;2023-11-18T07:02:25;101364.91;;;5.51;90.05
26657;BME280;14279;50.010;8.260;2023-11-18T07:04:57;101360.44;;;5.69;90.72
26657;BME280;14279;50.010;8.260;2023-11-18T07:07:22;101349.25;;;5.67;90.30
26657;BME280;14279;50.010;8.260;2023-11-18T07:09:48;101351.91;;;5.57;90.79
26657;BME280;14279;50.010;8.260;2023-11-18T07:12:13;101350.94;;;5.69;91.13
26657;BME280;14279;50.010;8.260;2023-11-18T07:14:38;101352.75;;;5.60;91.10
26657;BME280;14279;50.010;8.260;2023-11-18T07:17:03;101352.84;;;5.52;91.03
26657;BME280;14279;50.010;8.260;2023-11-18T07:19:30;101351.16;;;5.45;90.88
26657;BME280;14279;50.010;8.260;2023-11-18T07:21:56;101350.44;;;5.33;92.07
26657;BME280;14279;50.010;8.260;2023-11-18T07:24:21;101352.78;;;5.56;91.00
26657;BME280;14279;50.010;8.260;2023-11-18T07:26:46;101352.78;;;5.61;90.74
26657;BME280;14279;50.010;8.260;2023-11-18T07:29:12;101363.97;;;5.60;90.68
26657;BME280;14279;50.010;8.260;2023-11-18T07:31:37;101376.91;;;5.57;91.08
26657;BME280;14279;50.010;8.260;2023-11-18T07:34:03;101382.94;;;5.54;91.00
26657;BME280;14279;50.010;8.260;2023-11-18T07:36:30;101383.84;;;5.53;91.54
26657;BME280;14279;50.010;8.260;2023-11-18T07:38:55;101374.41;;;5.48;91.13
26657;BME280;14279;50.010;8.260;2023-11-18T07:41:20;101364.97;;;5.42;92.13
26657;BME280;14279;50.010;8.260;2023-11-18T07:43:52;101376.94;;;5.54;91.31
26657;BME280;14279;50.010;8.260;2023-11-18T07:46:21;101377.63;;;5.73;91.48
26657;BME280;14279;50.010;8.260;2023-11-18T07:48:50;101369.00;;;5.74;90.99
26657;BME280;14279;50.010;8.260;2023-11-18T07:51:17;101372.31;;;5.87;90.58
26657;BME280;14279;50.010;8.260;2023-11-18T07:53:43;101374.94;;;5.82;91.20
26657;BME280;14279;50.010;8.260;2023-11-18T07:56:08;101393.00;;;5.85;91.72
26657;BME280;14279;50.010;8.260;2023-11-18T07:58:36;101382.56;;;5.93;91.08
26657;BME280;14279;50.010;8.260;2023-11-18T08:01:03;101390.34;;;5.92;91.17
26657;BME280;14279;50.010;8.260;2023-11-18T08:03:29;101392.00;;;5.97;90.57
26657;BME280;14279;50.010;8.260;2023-11-18T08:05:56;101391.28;;;5.84;91.61
26657;BME280;14279;50.010;8.260;2023-11-18T08:08:23;101387.09;;;5.72;91.21
26657;BME280;14279;50.010;8.260;2023-11-18T08:10:48;101371.56;;;5.76;91.96
26657;BME280;14279;50.010;8.260;2023-11-18T08:13:14;101381.91;;;5.77;91.48
26657;BME280;14279;50.010;8.260;2023-11-18T08:15:41;101389.66;;;5.76;92.28
26657;BME280;14279;50.010;8.260;2023-11-18T08:18:07;101386.19;;;5.77;91.30
26657;BME280;14279;50.010;8.260;2023-11-18T08:20:33;101395.63;;;5.79;91.79
26657;BME280;14279;50.010;8.260;2023-11-18T08:22:58;101385.34;;;5.76;91.89
26657;BME280;14279;50.010;8.260;2023-11-18T08:25:24;101382.75;;;5.75;91.63
26657;BME280;14279;50.010;8.260;2023-11-18T08:27:51;101381.81;;;5.83;91.34
26657;BME280;14279;50.010;8.260;2023-11-18T08:30:16;101374.06;;;5.85;91.35
26657;BME280;14279;50.010;8.260;2023-11-18T08:32:44;101370.63;;;5.81;91.53
26657;BME280;14279;50.010;8.260;2023-11-18T08:35:11;101368.94;;;5.79;91.97
26657;BME280;14279;50.010;8.260;2023-11-18T08:37:39;101364.59;;;5.84;91.99
26657;BME280;14279;50.010;8.260;2023-11-18T08:40:06;101368.00;;;5.87;92.11
26657;BME280;14279;50.010;8.260;2023-11-18T08:42:41;101368.19;;;5.67;92.67
26657;BME280;14279;50.010;8.260;2023-11-18T08:45:07;101365.69;;;5.60;93.53
26657;BME280;14279;50.010;8.260;2023-11-18T08:47:32;101352.72;;;5.66;93.28
26657;BME280;14279;50.010;8.260;2023-11-18T08:49:58;101345.00;;;5.61;93.60
26657;BME280;14279;50.010;8.260;2023-11-18T08:52:23;101344.84;;;5.77;93.00
26657;BME280;14279;50.010;8.260;2023-11-18T08:54:50;101347.47;;;5.74;92.64
26657;BME280;14279;50.010;8.260;2023-11-18T08:57:34;101341.44;;;5.76;92.63
26657;BME280;14279;50.010;8.260;2023-11-18T09:00:15;101349.84;;;5.94;92.19
26657;BME280;14279;50.010;8.260;2023-11-18T09:02:59;101350.78;;;5.88;92.46
26657;BME280;14279;50.010;8.260;2023-11-18T09:05:26;101347.25;;;5.92;92.18
26657;BME280;14279;50.010;8.260;2023-11-18T09:07:54;101352.41;;;5.97;92.30
26657;BME280;14279;50.010;8.260;2023-11-18T09:10:23;101351.50;;;6.03;91.93
26657;BME280;14279;50.010;8.260;2023-11-18T09:12:48;101349.66;;;6.12;91.47
26657;BME280;14279;50.010;8.260;2023-11-18T09:15:13;101348.69;;;6.23;90.84
26657;BME280;14279;50.010;8.260;2023-11-18T09:17:47;101346.97;;;6.20;91.46
26657;BME280;14279;50.010;8.260;2023-11-18T09:20:14;101357.16;;;6.34;91.06
26657;BME280;14279;50.010;8.260;2023-11-18T09:22:43;101355.59;;;6.19;91.02
26657;BME280;14279;50.010;8.260;2023-11-18T09:25:09;101358.22;;;6.16;91.10
26657;BME280;14279;50.010;8.260;2023-11-18T09:27:36;101357.22;;;6.29;90.96
26657;BME280;14279;50.010;8.260;2023-11-18T09:30:01;101358.09;;;6.28;90.96
26657;BME280;14279;50.010;8.260;2023-11-18T09:32:42;101350.28;;;6.35;90.64
26657;BME280;14279;50.010;8.260;2023-11-18T09:35:08;101348.50;;;6.38;91.37
26657;BME280;14279;50.010;8.260;2023-11-18T09:37:35;101359.59;;;6.46;90.90
26657;BME280;14279;50.010;8.260;2023-11-18T09:40:01;101358.81;;;6.41;91.62
26657;BME280;14279;50.010;8.260;2023-11-18T09:42:39;101359.69;;;6.39;91.40
26657;BME280;14279;50.010;8.260;2023-11-18T09:45:05;101360.22;;;6.62;90.75
26657;BME280;14279;50.010;8.260;2023-11-18T09:47:42;101369.59;;;6.73;90.83
26657;BME280;14279;50.010;8.260;2023-11-18T09:50:10;101365.41;;;6.64;90.73
26657;BME280;14279;50.010;8.260;2023-11-18T09:52:42;101367.91;;;6.69;91.13
26657;BME280;14279;50.010;8.260;2023-11-18T09:55:25;101360.28;;;6.59;91.47
26657;BME280;14279;50.010;8.260;2023-11-18T09:58:01;101363.56;;;6.71;91.37
26657;BME280;14279;50.010;8.260;2023-11-18T10:00:30;101351.44;;;6.74;91.48
26657;BME280;14279;50.010;8.260;2023-11-18T10:03:02;101359.19;;;6.76;91.40
26657;BME280;14279;50.010;8.260;2023-11-18T10:05:30;101362.63;;;6.76;92.18
26657;BME280;14279;50.010;8.260;2023-11-18T10:08:12;101352.22;;;6.80;92.50
26657;BME280;14279;50.010;8.260;2023-11-18T10:10:55;101358.16;;;6.88;92.21
26657;BME280;14279;50.010;8.260;2023-11-18T10:13:56;101354.81;;;6.81;92.78
26657;BME280;14279;50.010;8.260;2023-11-18T10:16:57;101359.72;;;6.98;92.75
26657;BME280;14279;50.010;8.260;2023-11-18T10:19:55;101363.25;;;6.92;92.60
26657;BME280;14279;50.010;8.260;2023-11-18T10:22:22;101345.81;;;7.07;92.91
26657;BME280;14279;50.010;8.260;2023-11-18T10:24:49;101355.50;;;6.92;93.48
26657;BME280;14279;50.010;8.260;2023-11-18T10:27:15;101356.38;;;6.91;93.88
26657;BME280;14279;50.010;8.260;2023-11-18T10:29:45;101345.09;;;6.96;93.97
26657;BME280;14279;50.010;8.260;2023-11-18T10:32:15;101342.56;;;6.92;94.20
26657;BME280;14279;50.010;8.260;2023-11-18T10:34:58;101336.38;;;7.03;94.13
26657;BME280;14279;50.010;8.260;2023-11-18T10:37:25;101327.56;;;7.13;93.91
26657;BME280;14279;50.010;8.260;2023-11-18T10:39:51;101329.44;;;7.05;94.32
26657;BME280;14279;50.010;8.260;2023-11-18T10:42:17;101332.13;;;6.99;95.04
26657;BME280;14279;50.010;8.260;2023-11-18T10:44:58;101324.31;;;7.02;94.96
26657;BME280;14279;50.010;8.260;2023-11-18T10:47:25;101320.88;;;7.00;95.46
26657;BME280;14279;50.010;8.260;2023-11-18T10:49:53;101314.97;;;6.93;95.89
26657;BME280;14279;50.010;8.260;2023-11-18T10:52:19;101308.03;;;6.94;96.07
26657;BME280;14279;50.010;8.260;2023-11-18T10:54:54;101305.47;;;6.92;96.34
26657;BME280;14279;50.010;8.260;2023-11-18T10:57:22;101300.25;;;6.95;96.45
26657;BME280;14279;50.010;8.260;2023-11-18T10:59:59;101290.78;;;6.92;96.83
26657;BME280;14279;50.010;8.260;2023-11-18T11:02:25;101302.66;;;7.06;96.33
26657;BME280;14279;50.010;8.260;2023-11-18T11:04:50;101289.69;;;7.09;96.73
26657;BME280;14279;50.010;8.260;2023-11-18T11:07:16;101290.38;;;7.17;96.49
26657;BME280;14279;50.010;8.260;2023-11-18T11:09:44;101277.28;;;7.27;96.26
26657;BME280;14279;50.010;8.260;2023-11-18T11:12:12;101266.78;;;7.34;96.14
26657;BME280;14279;50.010;8.260;2023-11-18T11:15:15;101263.22;;;7.40;96.17
26657;BME280;14279;50.010;8.260;2023-11-18T11:17:50;101263.91;;;7.50;95.51
26657;BME280;14279;50.010;8.260;2023-11-18T11:20:21;101262.91;;;7.57;95.55
26657;BME280;14279;50.010;8.260;2023-11-18T11:23:30;101254.97;;;7.65;95.16
26657;BME280;14279;50.010;8.260;2023-11-18T11:32:18;101226.69;;;7.54;94.78
26657;BME280;14279;50.010;8.260;2023-11-18T11:34:57;101211.91;;;7.59;94.83
26657;BME280;14279;50.010;8.260;2023-11-18T11:37:32;101207.72;;;7.52;95.19
26657;BME280;14279;50.010;8.260;2023-11-18T11:39:59;101208.53;;;7.54;95.18
26657;BME280;14279;50.010;8.260;2023-11-18T11:42:29;101212.63;;;7.66;94.92
26657;BME280;14279;50.010;8.260;2023-11-18T11:44:55;101215.94;;;7.74;94.34
26657;BME280;14279;50.010;8.260;2023-11-18T11:47:21;101215.22;;;7.67;94.57
26657;BME280;14279;50.010;8.260;2023-11-18T11:50:09;101201.97;;;7.81;93.99
26657;BME280;14279;50.010;8.260;2023-11-18T11:52:44;101198.34;;;7.89;94.09
26657;BME280;14279;50.010;8.260;2023-11-18T11:58:26;101192.09;;;7.97;93.59
26657;BME280;14279;50.010;8.260;2023-11-18T12:00:52;101187.78;;;7.96;93.25
26657;BME280;14279;50.010;8.260;2023-11-18T12:03:21;101180.91;;;7.95;93.58
26657;BME280;14279;50.010;8.260;2023-11-18T12:05:49;101172.75;;;8.12;92.90
26657;BME280;14279;50.010;8.260;2023-11-18T12:08:16;101164.13;;;8.12;92.33
26657;BME280;14279;50.010;8.260;2023-11-18T12:10:51;101159.78;;;8.12;92.63
26657;BME280;14279;50.010;8.260;2023-11-18T12:13:17;101160.03;;;8.02;93.61
26657;BME280;14279;50.010;8.260;2023-11-18T12:15:54;101156.53;;;8.04;93.24
26657;BME280;14279;50.010;8.260;2023-11-18T12:18:22;101160.91;;;8.01;93.22
26657;BME280;14279;50.010;8.260;2023-11-18T12:20:49;101158.13;;;8.08;93.15
26657;BME280;14279;50.010;8.260;2023-11-18T12:23:23;101158.97;;;8.10;93.13
26657;BME280;14279;50.010;8.260;2023-11-18T12:25:51;101146.03;;;8.09;93.19
26657;BME280;14279;50.010;8.260;2023-11-18T12:28:32;101152.38;;;7.95;93.59
26657;BME280;14279;50.010;8.260;2023-11-18T12:31:10;101155.72;;;8.01;93.51
26657;BME280;14279;50.010;8.260;2023-11-18T12:39:16;101149.72;;;7.98;94.28
26657;BME280;14279;50.010;8.260;2023-11-18T12:42:01;101143.00;;;7.90;95.31
26657;BME280;14279;50.010;8.260;2023-11-18T12:44:36;101136.09;;;7.90;95.57
26657;BME280;14279;50.010;8.260;2023-11-18T12:47:05;101127.44;;;7.90;96.77
26657;BME280;14279;50.010;8.260;2023-11-18T12:49:41;101117.91;;;7.92;96.70
26657;BME280;14279;50.010;8.260;2023-11-18T12:52:11;101094.94;;;8.14;97.57
26657;BME280;14279;50.010;8.260;2023-11-18T12:54:40;101093.25;;;8.11;96.74
26657;BME280;14279;50.010;8.260;2023-11-18T12:57:12;101080.25;;;8.13;96.85
26657;BME280;14279;50.010;8.260;2023-11-18T12:59:41;101075.84;;;8.17;96.74
26657;BME280;14279;50.010;8.260;2023-11-18T13:02:10;101068.09;;;8.15;96.95
26657;BME280;14279;50.010;8.260;2023-11-18T13:04:43;101072.53;;;8.10;97.49
26657;BME280;14279;50.010;8.260;2023-11-18T13:07:15;101063.81;;;8.14;98.15
26657;BME280;14279;50.010;8.260;2023-11-18T13:09:42;101057.56;;;8.21;97.43
26657;BME280;14279;50.010;8.260;2023-11-18T13:12:09;101053.69;;;8.38;96.36
26657;BME280;14279;50.010;8.260;2023-11-18T13:14:36;101043.41;;;8.33;96.27
26657;BME280;14279;50.010;8.260;2023-11-18T13:17:03;101037.06;;;8.10;96.98
26657;BME280;14279;50.010;8.260;2023-11-18T13:19:31;101026.84;;;8.06;97.31
26657;BME280;14279;50.010;8.260;2023-11-18T13:22:07;101024.56;;;8.28;96.38